sensor_id;sensor_type;location;lat;lon;timestamp;P1;durP1;ratioP1;P2;durP2;ratioP2
65234;SDS011;51820;48.374;10.930;2023-05-03T00:00:50;11.73;;;6.32;;
65234;SDS011;51820;48.374;10.930;2023-05-03T00:03:20;10.97;;;6.70;;
65234;SDS011;51820;48.374;10.930;2023-05-03T00:05:49;11.60;;;6.85;;
65234;SDS011;51820;48.374;10.930;2023-05-03T00:08:20;12.75;;;6.90;;
65234;SDS011;51820;48.374;10.930;2023-05-03T00:10:49;11.75;;;6.47;;
65234;SDS011;51820;48.374;10.930;2023-05-03T00:13:17;11.20;;;6.60;;
65234;SDS011;51820;48.374;10.930;2023-05-03T00:15:46;10.73;;;6.40;;
65234;SDS011;51820;48.374;10.930;2023-05-03T00:18:14;12.05;;;7.22;;
65234;SDS011;51820;48.374;10.930;2023-05-03T00:20:44;13.52;;;6.97;;
65234;SDS011;51820;48.374;10.930;2023-05-03T00:23:13;13.10;;;7.60;;
65234;SDS011;51820;48.374;10.930;2023-05-03T00:25:41;12.18;;;7.15;;
65234;SDS011;51820;48.374;10.930;2023-05-03T00:28:09;12.40;;;6.97;;
65234;SDS011;51820;48.374;10.930;2023-05-03T00:30:38;12.52;;;7.35;;
65234;SDS011;51820;48.374;10.930;2023-05-03T00:33:06;11.57;;;7.10;;
65234;SDS011;51820;48.374;10.930;2023-05-03T00:35:35;11.88;;;7.38;;
65234;SDS011;51820;48.374;10.930;2023-05-03T00:38:05;11.25;;;6.63;;
65234;SDS011;51820;48.374;10.930;2023-05-03T00:40:33;11.20;;;6.33;;
65234;SDS011;51820;48.374;10.930;2023-05-03T00:43:02;12.25;;;6.80;;
65234;SDS011;51820;48.374;10.930;2023-05-03T00:45:30;12.02;;;7.00;;
65234;SDS011;51820;48.374;10.930;2023-05-03T00:48:00;12.38;;;7.05;;
65234;SDS011;51820;48.374;10.930;2023-05-03T00:50:29;12.30;;;7.25;;
65234;SDS011;51820;48.374;10.930;2023-05-03T00:52:57;13.67;;;7.07;;
65234;SDS011;51820;48.374;10.930;2023-05-03T00:55:28;12.52;;;7.18;;
65234;SDS011;51820;48.374;10.930;2023-05-03T00:57:57;11.43;;;7.28;;
65234;SDS011;51820;48.374;10.930;2023-05-03T01:00:26;12.90;;;7.18;;
65234;SDS011;51820;48.374;10.930;2023-05-03T01:02:54;11.82;;;7.32;;
65234;SDS011;51820;48.374;10.930;2023-05-03T01:05:23;12.33;;;6.60;;
65234;SDS011;51820;48.374;10.930;2023-05-03T01:07:57;12.68;;;7.00;;
65234;SDS011;51820;48.374;10.930;2023-05-03T01:10:35;13.77;;;7.20;;
65234;SDS011;51820;48.374;10.930;2023-05-03T01:13:09;11.95;;;7.13;;
65234;SDS011;51820;48.374;10.930;2023-05-03T01:15:55;15.23;;;7.50;;
65234;SDS011;51820;48.374;10.930;2023-05-03T01:18:29;12.77;;;6.90;;
65234;SDS011;51820;48.374;10.930;2023-05-03T01:21:01;12.23;;;7.05;;
65234;SDS011;51820;48.374;10.930;2023-05-03T01:23:32;15.27;;;7.25;;
65234;SDS011;51820;48.374;10.930;2023-05-03T01:26:19;13.75;;;7.28;;
65234;SDS011;51820;48.374;10.930;2023-05-03T01:28:48;14.20;;;6.82;;
65234;SDS011;51820;48.374;10.930;2023-05-03T01:31:18;12.40;;;6.93;;
65234;SDS011;51820;48.374;10.930;2023-05-03T01:33:52;12.70;;;6.88;;
65234;SDS011;51820;48.374;10.930;2023-05-03T01:36:29;13.88;;;6.20;;
65234;SDS011;51820;48.374;10.930;2023-05-03T01:38:59;10.80;;;5.10;;
65234;SDS011;51820;48.374;10.930;2023-05-03T01:41:35;12.52;;;6.00;;
65234;SDS011;51820;48.374;10.930;2023-05-03T01:44:06;10.03;;;5.20;;
65234;SDS011;51820;48.374;10.930;2023-05-03T01:46:40;9.90;;;5.50;;
65234;SDS011;51820;48.374;10.930;2023-05-03T01:49:10;9.75;;;5.78;;
65234;SDS011;51820;48.374;10.930;2023-05-03T01:51:38;11.77;;;5.63;;
65234;SDS011;51820;48.374;10.930;2023-05-03T01:54:07;10.30;;;6.10;;
65234;SDS011;51820;48.374;10.930;2023-05-03T01:56:36;15.30;;;6.20;;
65234;SDS011;51820;48.374;10.930;2023-05-03T01:59:04;14.00;;;5.95;;
65234;SDS011;51820;48.374;10.930;2023-05-03T02:01:33;11.18;;;5.90;;
65234;SDS011;51820;48.374;10.930;2023-05-03T02:04:02;10.98;;;5.68;;
65234;SDS011;51820;48.374;10.930;2023-05-03T02:06:30;11.82;;;5.38;;
65234;SDS011;51820;48.374;10.930;2023-05-03T02:08:58;11.07;;;5.83;;
65234;SDS011;51820;48.374;10.930;2023-05-03T02:11:27;10.20;;;4.80;;
65234;SDS011;51820;48.374;10.930;2023-05-03T02:13:57;14.48;;;5.68;;
65234;SDS011;51820;48.374;10.930;2023-05-03T02:16:25;13.35;;;6.45;;
65234;SDS011;51820;48.374;10.930;2023-05-03T02:18:55;15.38;;;7.55;;
65234;SDS011;51820;48.374;10.930;2023-05-03T02:21:25;13.10;;;7.07;;
65234;SDS011;51820;48.374;10.930;2023-05-03T02:23:53;15.23;;;6.80;;
65234;SDS011;51820;48.374;10.930;2023-05-03T02:26:22;16.52;;;7.18;;
65234;SDS011;51820;48.374;10.930;2023-05-03T02:28:50;12.30;;;6.65;;
65234;SDS011;51820;48.374;10.930;2023-05-03T02:31:21;17.77;;;7.70;;
65234;SDS011;51820;48.374;10.930;2023-05-03T02:33:50;24.97;;;8.80;;
65234;SDS011;51820;48.374;10.930;2023-05-03T02:36:21;59.05;;;8.65;;
65234;SDS011;51820;48.374;10.930;2023-05-03T02:38:50;38.28;;;9.43;;
65234;SDS011;51820;48.374;10.930;2023-05-03T02:41:21;55.13;;;10.35;;
65234;SDS011;51820;48.374;10.930;2023-05-03T02:43:49;47.28;;;10.05;;
65234;SDS011;51820;48.374;10.930;2023-05-03T02:46:18;55.40;;;11.87;;
65234;SDS011;51820;48.374;10.930;2023-05-03T02:48:49;61.78;;;11.70;;
65234;SDS011;51820;48.374;10.930;2023-05-03T02:51:18;66.18;;;11.10;;
65234;SDS011;51820;48.374;10.930;2023-05-03T02:53:47;68.18;;;10.73;;
65234;SDS011;51820;48.374;10.930;2023-05-03T02:56:16;54.92;;;10.38;;
65234;SDS011;51820;48.374;10.930;2023-05-03T02:58:44;39.60;;;9.87;;
65234;SDS011;51820;48.374;10.930;2023-05-03T03:01:12;34.78;;;10.18;;
65234;SDS011;51820;48.374;10.930;2023-05-03T03:03:42;50.47;;;11.23;;
65234;SDS011;51820;48.374;10.930;2023-05-03T03:06:12;90.85;;;12.43;;
65234;SDS011;51820;48.374;10.930;2023-05-03T03:08:40;39.05;;;9.93;;
65234;SDS011;51820;48.374;10.930;2023-05-03T03:11:09;54.40;;;9.63;;
65234;SDS011;51820;48.374;10.930;2023-05-03T03:13:38;79.82;;;10.57;;
65234;SDS011;51820;48.374;10.930;2023-05-03T03:16:07;39.25;;;9.77;;
65234;SDS011;51820;48.374;10.930;2023-05-03T03:18:35;26.55;;;9.30;;
65234;SDS011;51820;48.374;10.930;2023-05-03T03:21:04;19.50;;;8.27;;
65234;SDS011;51820;48.374;10.930;2023-05-03T03:23:36;17.70;;;8.43;;
65234;SDS011;51820;48.374;10.930;2023-05-03T03:26:04;16.15;;;8.40;;
65234;SDS011;51820;48.374;10.930;2023-05-03T03:28:33;23.90;;;9.05;;
65234;SDS011;51820;48.374;10.930;2023-05-03T03:31:06;18.05;;;9.18;;
65234;SDS011;51820;48.374;10.930;2023-05-03T03:33:36;32.50;;;9.20;;
65234;SDS011;51820;48.374;10.930;2023-05-03T03:36:10;23.33;;;9.43;;
65234;SDS011;51820;48.374;10.930;2023-05-03T03:38:43;26.90;;;9.80;;
65234;SDS011;51820;48.374;10.930;2023-05-03T03:41:11;18.48;;;8.48;;
65234;SDS011;51820;48.374;10.930;2023-05-03T03:43:40;32.95;;;8.82;;
65234;SDS011;51820;48.374;10.930;2023-05-03T03:46:15;21.38;;;9.60;;
65234;SDS011;51820;48.374;10.930;2023-05-03T03:48:45;34.37;;;9.63;;
65234;SDS011;51820;48.374;10.930;2023-05-03T03:51:13;41.33;;;9.65;;
65234;SDS011;51820;48.374;10.930;2023-05-03T03:53:47;38.53;;;9.95;;
65234;SDS011;51820;48.374;10.930;2023-05-03T03:56:15;30.67;;;10.05;;
65234;SDS011;51820;48.374;10.930;2023-05-03T03:58:45;29.45;;;10.48;;
65234;SDS011;51820;48.374;10.930;2023-05-03T04:01:14;31.23;;;8.90;;
65234;SDS011;51820;48.374;10.930;2023-05-03T04:03:43;17.75;;;8.60;;
65234;SDS011;51820;48.374;10.930;2023-05-03T04:06:13;17.38;;;8.63;;
65234;SDS011;51820;48.374;10.930;2023-05-03T04:08:41;19.23;;;8.68;;
65234;SDS011;51820;48.374;10.930;2023-05-03T04:11:13;14.52;;;7.68;;
65234;SDS011;51820;48.374;10.930;2023-05-03T04:13:47;16.47;;;8.10;;
65234;SDS011;51820;48.374;10.930;2023-05-03T04:16:16;31.92;;;9.60;;
65234;SDS011;51820;48.374;10.930;2023-05-03T04:18:45;33.15;;;9.48;;
65234;SDS011;51820;48.374;10.930;2023-05-03T04:21:13;19.80;;;8.68;;
65234;SDS011;51820;48.374;10.930;2023-05-03T04:23:42;17.08;;;8.82;;
65234;SDS011;51820;48.374;10.930;2023-05-03T04:26:14;15.70;;;8.60;;
65234;SDS011;51820;48.374;10.930;2023-05-03T04:29:02;16.25;;;8.23;;
65234;SDS011;51820;48.374;10.930;2023-05-03T04:31:34;15.25;;;8.23;;
65234;SDS011;51820;48.374;10.930;2023-05-03T04:34:03;16.75;;;8.20;;
65234;SDS011;51820;48.374;10.930;2023-05-03T04:36:31;13.07;;;7.70;;
65234;SDS011;51820;48.374;10.930;2023-05-03T04:39:00;14.03;;;7.70;;
65234;SDS011;51820;48.374;10.930;2023-05-03T04:41:31;12.40;;;7.00;;
65234;SDS011;51820;48.374;10.930;2023-05-03T04:43:59;12.95;;;7.20;;
65234;SDS011;51820;48.374;10.930;2023-05-03T04:46:28;12.50;;;7.22;;
65234;SDS011;51820;48.374;10.930;2023-05-03T04:48:57;13.57;;;7.25;;
65234;SDS011;51820;48.374;10.930;2023-05-03T04:51:25;11.93;;;6.80;;
65234;SDS011;51820;48.374;10.930;2023-05-03T04:53:57;13.25;;;7.03;;
65234;SDS011;51820;48.374;10.930;2023-05-03T04:56:25;12.70;;;7.13;;
65234;SDS011;51820;48.374;10.930;2023-05-03T04:59:05;14.10;;;7.07;;
65234;SDS011;51820;48.374;10.930;2023-05-03T05:01:34;12.45;;;6.50;;
65234;SDS011;51820;48.374;10.930;2023-05-03T05:04:04;12.60;;;6.70;;
65234;SDS011;51820;48.374;10.930;2023-05-03T05:06:39;13.52;;;7.53;;
65234;SDS011;51820;48.374;10.930;2023-05-03T05:09:20;11.68;;;6.82;;
65234;SDS011;51820;48.374;10.930;2023-05-03T05:11:51;12.35;;;6.90;;
65234;SDS011;51820;48.374;10.930;2023-05-03T05:14:26;12.93;;;7.10;;
65234;SDS011;51820;48.374;10.930;2023-05-03T05:16:56;11.33;;;6.80;;
65234;SDS011;51820;48.374;10.930;2023-05-03T05:19:25;13.90;;;7.57;;
65234;SDS011;51820;48.374;10.930;2023-05-03T05:21:55;12.80;;;7.32;;
65234;SDS011;51820;48.374;10.930;2023-05-03T05:24:30;12.63;;;7.15;;
65234;SDS011;51820;48.374;10.930;2023-05-03T05:26:59;11.65;;;7.22;;
65234;SDS011;51820;48.374;10.930;2023-05-03T05:29:29;12.00;;;7.10;;
65234;SDS011;51820;48.374;10.930;2023-05-03T05:31:57;12.50;;;7.07;;
65234;SDS011;51820;48.374;10.930;2023-05-03T05:34:30;12.52;;;7.10;;
65234;SDS011;51820;48.374;10.930;2023-05-03T05:37:11;15.20;;;7.22;;
65234;SDS011;51820;48.374;10.930;2023-05-03T05:39:39;61.05;;;30.92;;
65234;SDS011;51820;48.374;10.930;2023-05-03T05:42:09;65.03;;;31.90;;
65234;SDS011;51820;48.374;10.930;2023-05-03T05:44:39;19.50;;;10.77;;
65234;SDS011;51820;48.374;10.930;2023-05-03T05:47:08;15.75;;;8.52;;
65234;SDS011;51820;48.374;10.930;2023-05-03T05:49:38;13.73;;;7.40;;
65234;SDS011;51820;48.374;10.930;2023-05-03T05:52:07;14.50;;;7.43;;
65234;SDS011;51820;48.374;10.930;2023-05-03T05:54:36;12.43;;;7.00;;
65234;SDS011;51820;48.374;10.930;2023-05-03T05:57:04;11.80;;;6.97;;
65234;SDS011;51820;48.374;10.930;2023-05-03T05:59:34;14.15;;;7.85;;
65234;SDS011;51820;48.374;10.930;2023-05-03T06:02:04;14.02;;;7.25;;
65234;SDS011;51820;48.374;10.930;2023-05-03T06:04:34;13.88;;;8.00;;
65234;SDS011;51820;48.374;10.930;2023-05-03T06:07:02;13.93;;;7.33;;
65234;SDS011;51820;48.374;10.930;2023-05-03T06:09:32;18.83;;;8.60;;
65234;SDS011;51820;48.374;10.930;2023-05-03T06:12:02;13.85;;;7.57;;
65234;SDS011;51820;48.374;10.930;2023-05-03T06:14:33;13.85;;;7.95;;
65234;SDS011;51820;48.374;10.930;2023-05-03T06:17:01;14.55;;;8.02;;
65234;SDS011;51820;48.374;10.930;2023-05-03T06:19:32;16.63;;;8.03;;
65234;SDS011;51820;48.374;10.930;2023-05-03T06:22:03;14.15;;;8.00;;
65234;SDS011;51820;48.374;10.930;2023-05-03T06:24:34;14.88;;;8.43;;
65234;SDS011;51820;48.374;10.930;2023-05-03T06:27:03;15.32;;;8.60;;
65234;SDS011;51820;48.374;10.930;2023-05-03T06:29:32;16.70;;;8.75;;
65234;SDS011;51820;48.374;10.930;2023-05-03T06:32:01;17.30;;;9.40;;
65234;SDS011;51820;48.374;10.930;2023-05-03T06:34:32;19.77;;;9.32;;
65234;SDS011;51820;48.374;10.930;2023-05-03T06:37:01;17.45;;;9.57;;
65234;SDS011;51820;48.374;10.930;2023-05-03T06:39:30;16.92;;;9.40;;
65234;SDS011;51820;48.374;10.930;2023-05-03T06:41:58;17.85;;;9.00;;
65234;SDS011;51820;48.374;10.930;2023-05-03T06:44:34;16.03;;;8.13;;
65234;SDS011;51820;48.374;10.930;2023-05-03T06:47:02;19.10;;;9.35;;
65234;SDS011;51820;48.374;10.930;2023-05-03T06:49:32;18.20;;;9.50;;
65234;SDS011;51820;48.374;10.930;2023-05-03T06:52:01;17.90;;;9.50;;
65234;SDS011;51820;48.374;10.930;2023-05-03T06:54:29;21.63;;;9.40;;
65234;SDS011;51820;48.374;10.930;2023-05-03T06:56:57;16.77;;;9.70;;
65234;SDS011;51820;48.374;10.930;2023-05-03T06:59:27;19.30;;;10.15;;
65234;SDS011;51820;48.374;10.930;2023-05-03T07:01:56;18.38;;;10.10;;
65234;SDS011;51820;48.374;10.930;2023-05-03T07:04:25;18.65;;;9.77;;
65234;SDS011;51820;48.374;10.930;2023-05-03T07:06:54;15.52;;;8.77;;
65234;SDS011;51820;48.374;10.930;2023-05-03T07:09:23;17.60;;;9.30;;
65234;SDS011;51820;48.374;10.930;2023-05-03T07:12:07;18.35;;;9.90;;
65234;SDS011;51820;48.374;10.930;2023-05-03T07:14:36;18.05;;;9.50;;
65234;SDS011;51820;48.374;10.930;2023-05-03T07:17:05;18.30;;;9.70;;
65234;SDS011;51820;48.374;10.930;2023-05-03T07:19:33;18.08;;;9.55;;
65234;SDS011;51820;48.374;10.930;2023-05-03T07:22:03;18.37;;;10.03;;
65234;SDS011;51820;48.374;10.930;2023-05-03T07:24:32;17.35;;;9.40;;
65234;SDS011;51820;48.374;10.930;2023-05-03T07:27:00;16.45;;;9.43;;
65234;SDS011;51820;48.374;10.930;2023-05-03T07:29:29;19.80;;;9.98;;
65234;SDS011;51820;48.374;10.930;2023-05-03T07:31:58;19.33;;;10.52;;
65234;SDS011;51820;48.374;10.930;2023-05-03T07:34:26;18.63;;;9.90;;
65234;SDS011;51820;48.374;10.930;2023-05-03T07:36:54;18.58;;;10.52;;
65234;SDS011;51820;48.374;10.930;2023-05-03T07:39:24;19.10;;;10.25;;
65234;SDS011;51820;48.374;10.930;2023-05-03T07:41:52;19.33;;;10.60;;
65234;SDS011;51820;48.374;10.930;2023-05-03T07:44:21;17.15;;;10.63;;
65234;SDS011;51820;48.374;10.930;2023-05-03T07:46:50;17.93;;;10.07;;
65234;SDS011;51820;48.374;10.930;2023-05-03T07:49:18;17.35;;;9.80;;
65234;SDS011;51820;48.374;10.930;2023-05-03T07:51:47;17.55;;;10.13;;
65234;SDS011;51820;48.374;10.930;2023-05-03T07:54:15;17.20;;;10.30;;
65234;SDS011;51820;48.374;10.930;2023-05-03T07:56:45;25.15;;;11.30;;
65234;SDS011;51820;48.374;10.930;2023-05-03T07:59:13;17.97;;;10.20;;
65234;SDS011;51820;48.374;10.930;2023-05-03T08:01:45;18.63;;;10.63;;
65234;SDS011;51820;48.374;10.930;2023-05-03T08:04:13;21.52;;;10.77;;
65234;SDS011;51820;48.374;10.930;2023-05-03T08:06:42;17.77;;;9.90;;
65234;SDS011;51820;48.374;10.930;2023-05-03T08:09:10;18.17;;;10.05;;
65234;SDS011;51820;48.374;10.930;2023-05-03T08:11:39;15.40;;;9.40;;
65234;SDS011;51820;48.374;10.930;2023-05-03T08:14:11;17.77;;;9.73;;
65234;SDS011;51820;48.374;10.930;2023-05-03T08:16:39;16.98;;;9.30;;
65234;SDS011;51820;48.374;10.930;2023-05-03T08:19:07;19.05;;;10.48;;
65234;SDS011;51820;48.374;10.930;2023-05-03T08:21:36;17.83;;;9.65;;
65234;SDS011;51820;48.374;10.930;2023-05-03T08:24:04;23.40;;;11.50;;
65234;SDS011;51820;48.374;10.930;2023-05-03T08:26:34;19.52;;;10.57;;
65234;SDS011;51820;48.374;10.930;2023-05-03T08:29:02;18.48;;;10.25;;
65234;SDS011;51820;48.374;10.930;2023-05-03T08:31:32;18.40;;;10.25;;
65234;SDS011;51820;48.374;10.930;2023-05-03T08:34:01;18.85;;;10.07;;
65234;SDS011;51820;48.374;10.930;2023-05-03T08:36:32;16.43;;;9.90;;
65234;SDS011;51820;48.374;10.930;2023-05-03T08:39:01;18.40;;;9.90;;
65234;SDS011;51820;48.374;10.930;2023-05-03T08:41:31;17.88;;;9.70;;
65234;SDS011;51820;48.374;10.930;2023-05-03T08:44:00;19.75;;;10.05;;
65234;SDS011;51820;48.374;10.930;2023-05-03T08:46:30;18.30;;;10.13;;
65234;SDS011;51820;48.374;10.930;2023-05-03T08:49:04;17.60;;;9.77;;
65234;SDS011;51820;48.374;10.930;2023-05-03T08:51:33;17.52;;;10.52;;
65234;SDS011;51820;48.374;10.930;2023-05-03T08:54:06;19.23;;;10.30;;
65234;SDS011;51820;48.374;10.930;2023-05-03T08:56:38;22.95;;;10.18;;
65234;SDS011;51820;48.374;10.930;2023-05-03T08:59:07;18.13;;;9.93;;
65234;SDS011;51820;48.374;10.930;2023-05-03T09:01:37;17.90;;;10.37;;
65234;SDS011;51820;48.374;10.930;2023-05-03T09:04:08;19.00;;;10.25;;
65234;SDS011;51820;48.374;10.930;2023-05-03T09:06:37;18.92;;;10.18;;
65234;SDS011;51820;48.374;10.930;2023-05-03T09:09:06;20.65;;;10.25;;
65234;SDS011;51820;48.374;10.930;2023-05-03T09:11:36;20.50;;;11.05;;
65234;SDS011;51820;48.374;10.930;2023-05-03T09:14:08;19.97;;;10.20;;
65234;SDS011;51820;48.374;10.930;2023-05-03T09:16:38;17.95;;;10.20;;
65234;SDS011;51820;48.374;10.930;2023-05-03T09:19:08;20.25;;;10.18;;
65234;SDS011;51820;48.374;10.930;2023-05-03T09:21:38;20.23;;;11.13;;
65234;SDS011;51820;48.374;10.930;2023-05-03T09:24:15;18.02;;;10.40;;
65234;SDS011;51820;48.374;10.930;2023-05-03T09:26:45;17.67;;;10.17;;
65234;SDS011;51820;48.374;10.930;2023-05-03T09:32:00;17.20;;;9.73;;
65234;SDS011;51820;48.374;10.930;2023-05-03T09:34:32;18.77;;;10.00;;
65234;SDS011;51820;48.374;10.930;2023-05-03T09:37:02;17.20;;;9.88;;
65234;SDS011;51820;48.374;10.930;2023-05-03T09:39:32;15.83;;;9.63;;
65234;SDS011;51820;48.374;10.930;2023-05-03T09:42:11;17.13;;;9.85;;
65234;SDS011;51820;48.374;10.930;2023-05-03T09:44:42;17.05;;;9.82;;
65234;SDS011;51820;48.374;10.930;2023-05-03T09:47:10;16.90;;;9.63;;
65234;SDS011;51820;48.374;10.930;2023-05-03T09:49:40;17.40;;;9.25;;
65234;SDS011;51820;48.374;10.930;2023-05-03T09:52:09;16.63;;;10.07;;
65234;SDS011;51820;48.374;10.930;2023-05-03T09:54:39;16.52;;;9.43;;
65234;SDS011;51820;48.374;10.930;2023-05-03T09:57:07;16.40;;;9.52;;
65234;SDS011;51820;48.374;10.930;2023-05-03T09:59:36;19.52;;;9.57;;
65234;SDS011;51820;48.374;10.930;2023-05-03T10:02:05;14.70;;;9.52;;
65234;SDS011;51820;48.374;10.930;2023-05-03T10:04:38;15.07;;;9.97;;
65234;SDS011;51820;48.374;10.930;2023-05-03T10:07:13;15.38;;;9.13;;
65234;SDS011;51820;48.374;10.930;2023-05-03T10:09:45;15.43;;;9.00;;
65234;SDS011;51820;48.374;10.930;2023-05-03T10:12:14;17.15;;;8.68;;
65234;SDS011;51820;48.374;10.930;2023-05-03T10:14:43;14.35;;;8.60;;
65234;SDS011;51820;48.374;10.930;2023-05-03T10:17:16;18.53;;;8.57;;
65234;SDS011;51820;48.374;10.930;2023-05-03T10:20:01;13.95;;;8.82;;
65234;SDS011;51820;48.374;10.930;2023-05-03T10:25:37;14.38;;;8.15;;
65234;SDS011;51820;48.374;10.930;2023-05-03T10:28:06;13.75;;;8.60;;
65234;SDS011;51820;48.374;10.930;2023-05-03T10:30:35;13.43;;;8.40;;
65234;SDS011;51820;48.374;10.930;2023-05-03T10:35:55;13.52;;;7.95;;
65234;SDS011;51820;48.374;10.930;2023-05-03T10:38:26;13.93;;;8.18;;
65234;SDS011;51820;48.374;10.930;2023-05-03T10:40:55;14.55;;;7.38;;
65234;SDS011;51820;48.374;10.930;2023-05-03T10:43:41;15.03;;;7.40;;
65234;SDS011;51820;48.374;10.930;2023-05-03T10:49:16;11.93;;;7.20;;
65234;SDS011;51820;48.374;10.930;2023-05-03T10:51:45;11.43;;;7.22;;
65234;SDS011;51820;48.374;10.930;2023-05-03T10:54:18;12.93;;;7.82;;
65234;SDS011;51820;48.374;10.930;2023-05-03T10:56:47;11.47;;;6.67;;
65234;SDS011;51820;48.374;10.930;2023-05-03T10:59:16;11.30;;;6.90;;
65234;SDS011;51820;48.374;10.930;2023-05-03T11:01:45;10.85;;;7.00;;
65234;SDS011;51820;48.374;10.930;2023-05-03T11:04:17;11.20;;;7.15;;
65234;SDS011;51820;48.374;10.930;2023-05-03T11:07:00;13.73;;;7.18;;
65234;SDS011;51820;48.374;10.930;2023-05-03T11:09:32;11.60;;;6.90;;
65234;SDS011;51820;48.374;10.930;2023-05-03T11:12:04;11.00;;;7.00;;
65234;SDS011;51820;48.374;10.930;2023-05-03T11:14:34;12.02;;;7.63;;
65234;SDS011;51820;48.374;10.930;2023-05-03T11:17:10;14.48;;;7.28;;
65234;SDS011;51820;48.374;10.930;2023-05-03T11:19:42;12.63;;;7.63;;
65234;SDS011;51820;48.374;10.930;2023-05-03T11:22:11;11.73;;;7.80;;
65234;SDS011;51820;48.374;10.930;2023-05-03T11:24:42;11.63;;;7.25;;
65234;SDS011;51820;48.374;10.930;2023-05-03T11:27:10;12.95;;;7.40;;
65234;SDS011;51820;48.374;10.930;2023-05-03T11:29:39;13.10;;;7.57;;
65234;SDS011;51820;48.374;10.930;2023-05-03T11:32:07;11.60;;;6.93;;
65234;SDS011;51820;48.374;10.930;2023-05-03T11:34:36;11.10;;;6.40;;
65234;SDS011;51820;48.374;10.930;2023-05-03T11:37:07;10.38;;;6.28;;
65234;SDS011;51820;48.374;10.930;2023-05-03T11:39:36;9.40;;;6.00;;
65234;SDS011;51820;48.374;10.930;2023-05-03T11:42:16;9.57;;;5.53;;
65234;SDS011;51820;48.374;10.930;2023-05-03T11:44:45;9.85;;;6.10;;
65234;SDS011;51820;48.374;10.930;2023-05-03T11:47:13;9.77;;;6.10;;
65234;SDS011;51820;48.374;10.930;2023-05-03T11:49:49;10.90;;;6.00;;
65234;SDS011;51820;48.374;10.930;2023-05-03T11:52:21;10.82;;;5.40;;
65234;SDS011;51820;48.374;10.930;2023-05-03T11:54:50;10.43;;;5.53;;
65234;SDS011;51820;48.374;10.930;2023-05-03T11:57:20;8.38;;;5.30;;
65234;SDS011;51820;48.374;10.930;2023-05-03T11:59:51;8.87;;;5.20;;
65234;SDS011;51820;48.374;10.930;2023-05-03T12:02:20;9.13;;;5.85;;
65234;SDS011;51820;48.374;10.930;2023-05-03T12:04:50;9.02;;;5.15;;
65234;SDS011;51820;48.374;10.930;2023-05-03T12:07:20;9.35;;;5.85;;
65234;SDS011;51820;48.374;10.930;2023-05-03T12:09:52;11.00;;;6.25;;
65234;SDS011;51820;48.374;10.930;2023-05-03T12:16:47;10.35;;;5.80;;
65234;SDS011;51820;48.374;10.930;2023-05-03T12:19:27;10.32;;;5.43;;
65234;SDS011;51820;48.374;10.930;2023-05-03T12:22:01;11.10;;;5.85;;
65234;SDS011;51820;48.374;10.930;2023-05-03T12:24:54;9.63;;;5.97;;
65234;SDS011;51820;48.374;10.930;2023-05-03T12:27:24;9.47;;;5.93;;
65234;SDS011;51820;48.374;10.930;2023-05-03T12:29:58;10.55;;;6.15;;
65234;SDS011;51820;48.374;10.930;2023-05-03T12:32:29;8.48;;;5.45;;
65234;SDS011;51820;48.374;10.930;2023-05-03T12:34:59;8.50;;;5.63;;
65234;SDS011;51820;48.374;10.930;2023-05-03T12:37:33;10.30;;;6.40;;
65234;SDS011;51820;48.374;10.930;2023-05-03T12:40:05;11.90;;;6.23;;
65234;SDS011;51820;48.374;10.930;2023-05-03T12:42:54;9.30;;;5.25;;
65234;SDS011;51820;48.374;10.930;2023-05-03T12:45:28;8.80;;;5.10;;
65234;SDS011;51820;48.374;10.930;2023-05-03T12:48:01;10.00;;;6.00;;
65234;SDS011;51820;48.374;10.930;2023-05-03T12:50:33;8.88;;;5.55;;
65234;SDS011;51820;48.374;10.930;2023-05-03T12:53:07;10.00;;;5.70;;
65234;SDS011;51820;48.374;10.930;2023-05-03T12:55:37;9.60;;;5.68;;
65234;SDS011;51820;48.374;10.930;2023-05-03T12:58:09;9.43;;;5.47;;
65234;SDS011;51820;48.374;10.930;2023-05-03T13:00:44;10.02;;;5.60;;
65234;SDS011;51820;48.374;10.930;2023-05-03T13:03:35;9.05;;;5.50;;
65234;SDS011;51820;48.374;10.930;2023-05-03T13:06:09;8.90;;;5.43;;
65234;SDS011;51820;48.374;10.930;2023-05-03T13:08:40;7.82;;;4.78;;
65234;SDS011;51820;48.374;10.930;2023-05-03T13:11:11;7.85;;;4.43;;
65234;SDS011;51820;48.374;10.930;2023-05-03T13:13:40;7.47;;;4.65;;
65234;SDS011;51820;48.374;10.930;2023-05-03T13:16:08;10.13;;;5.82;;
65234;SDS011;51820;48.374;10.930;2023-05-03T13:18:38;9.23;;;5.87;;
65234;SDS011;51820;48.374;10.930;2023-05-03T13:21:08;10.60;;;5.90;;
65234;SDS011;51820;48.374;10.930;2023-05-03T13:23:37;11.20;;;5.80;;
65234;SDS011;51820;48.374;10.930;2023-05-03T13:26:05;10.35;;;5.53;;
65234;SDS011;51820;48.374;10.930;2023-05-03T13:28:34;8.75;;;5.13;;
65234;SDS011;51820;48.374;10.930;2023-05-03T13:31:02;7.33;;;4.30;;
65234;SDS011;51820;48.374;10.930;2023-05-03T13:33:31;7.72;;;4.05;;
65234;SDS011;51820;48.374;10.930;2023-05-03T13:36:04;9.98;;;4.80;;
65234;SDS011;51820;48.374;10.930;2023-05-03T13:38:34;8.63;;;4.90;;
65234;SDS011;51820;48.374;10.930;2023-05-03T13:41:04;9.27;;;5.40;;
65234;SDS011;51820;48.374;10.930;2023-05-03T13:43:33;9.70;;;5.00;;
65234;SDS011;51820;48.374;10.930;2023-05-03T13:46:02;9.80;;;4.82;;
65234;SDS011;51820;48.374;10.930;2023-05-03T13:48:30;8.80;;;4.80;;
65234;SDS011;51820;48.374;10.930;2023-05-03T13:50:59;9.38;;;4.63;;
65234;SDS011;51820;48.374;10.930;2023-05-03T13:53:29;8.77;;;5.25;;
65234;SDS011;51820;48.374;10.930;2023-05-03T13:55:57;8.67;;;4.77;;
65234;SDS011;51820;48.374;10.930;2023-05-03T13:58:26;12.15;;;7.38;;
65234;SDS011;51820;48.374;10.930;2023-05-03T14:00:54;11.02;;;6.68;;
65234;SDS011;51820;48.374;10.930;2023-05-03T14:03:23;9.10;;;5.38;;
65234;SDS011;51820;48.374;10.930;2023-05-03T14:05:51;9.88;;;5.40;;
65234;SDS011;51820;48.374;10.930;2023-05-03T14:08:20;10.10;;;5.80;;
65234;SDS011;51820;48.374;10.930;2023-05-03T14:10:52;9.10;;;5.85;;
65234;SDS011;51820;48.374;10.930;2023-05-03T14:13:22;9.50;;;5.60;;
65234;SDS011;51820;48.374;10.930;2023-05-03T14:15:51;9.10;;;5.95;;
65234;SDS011;51820;48.374;10.930;2023-05-03T14:18:20;8.63;;;4.00;;
65234;SDS011;51820;48.374;10.930;2023-05-03T14:20:49;7.77;;;4.00;;
65234;SDS011;51820;48.374;10.930;2023-05-03T14:23:17;8.57;;;5.05;;
65234;SDS011;51820;48.374;10.930;2023-05-03T14:25:45;8.98;;;4.80;;
65234;SDS011;51820;48.374;10.930;2023-05-03T14:28:15;6.65;;;4.00;;
65234;SDS011;51820;48.374;10.930;2023-05-03T14:30:43;9.30;;;4.82;;
65234;SDS011;51820;48.374;10.930;2023-05-03T14:33:13;10.37;;;5.50;;
65234;SDS011;51820;48.374;10.930;2023-05-03T14:35:41;10.45;;;4.63;;
65234;SDS011;51820;48.374;10.930;2023-05-03T14:38:10;7.38;;;4.43;;
65234;SDS011;51820;48.374;10.930;2023-05-03T14:40:39;7.80;;;4.70;;
65234;SDS011;51820;48.374;10.930;2023-05-03T14:43:08;7.13;;;3.90;;
65234;SDS011;51820;48.374;10.930;2023-05-03T14:45:38;7.57;;;4.20;;
65234;SDS011;51820;48.374;10.930;2023-05-03T14:48:06;7.30;;;3.90;;
65234;SDS011;51820;48.374;10.930;2023-05-03T14:50:35;6.57;;;3.20;;
65234;SDS011;51820;48.374;10.930;2023-05-03T14:53:10;6.20;;;2.90;;
65234;SDS011;51820;48.374;10.930;2023-05-03T14:55:39;5.95;;;3.20;;